createdAt,value
2022-12-01T00:01:16.582Z,27.80
2022-12-01T00:03:43.297Z,28.92
2022-12-01T00:06:11.253Z,29.92
2022-12-01T00:08:38.132Z,28.35
2022-12-01T00:11:09.160Z,27.33
2022-12-01T00:13:35.641Z,28.05
2022-12-01T00:16:12.332Z,27.75
2022-12-01T00:18:38.840Z,28.42
2022-12-01T00:21:05.351Z,27.45
2022-12-01T00:23:31.942Z,28.63
2022-12-01T00:26:05.306Z,28.10
2022-12-01T00:28:31.916Z,27.42
2022-12-01T00:30:58.453Z,29.80
2022-12-01T00:33:24.861Z,27.27
2022-12-01T00:35:57.382Z,27.88
2022-12-01T00:38:23.847Z,28.63
2022-12-01T00:40:50.251Z,27.52
2022-12-01T00:43:16.680Z,27.85
2022-12-01T00:45:43.321Z,27.50
2022-12-01T00:48:10.009Z,27.63
2022-12-01T00:50:36.481Z,27.58
2022-12-01T00:53:02.907Z,28.13
2022-12-01T00:55:29.313Z,27.20
2022-12-01T00:57:55.710Z,27.33
2022-12-01T01:00:22.271Z,29.23
2022-12-01T01:02:48.799Z,29.10
2022-12-01T01:05:15.327Z,28.10
2022-12-01T01:07:41.733Z,27.75
2022-12-01T01:10:08.305Z,28.50
2022-12-01T01:12:34.747Z,28.30
2022-12-01T01:15:05.236Z,29.48
2022-12-01T01:17:32.789Z,26.02
2022-12-01T01:19:59.198Z,27.58
2022-12-01T01:22:25.600Z,28.05
2022-12-01T01:24:52.007Z,28.13
2022-12-01T01:27:18.477Z,28.08
2022-12-01T01:29:44.875Z,28.58
2022-12-01T01:32:11.336Z,30.08
2022-12-01T01:34:37.791Z,28.60
2022-12-01T01:37:04.199Z,28.00
2022-12-01T01:39:30.619Z,29.27
2022-12-01T01:41:57.012Z,28.23
2022-12-01T01:44:42.215Z,29.13
2022-12-01T01:47:08.641Z,26.70
2022-12-01T01:49:35.171Z,27.55
2022-12-01T01:52:04.328Z,28.25
2022-12-01T01:54:35.761Z,29.38
2022-12-01T01:57:03.426Z,28.90
2022-12-01T01:59:31.651Z,28.73
2022-12-01T02:02:10.298Z,27.27
2022-12-01T02:04:41.764Z,29.92
2022-12-01T02:07:08.815Z,29.67
2022-12-01T02:09:36.280Z,30.20
2022-12-01T02:12:11.352Z,28.90
2022-12-01T02:14:53.118Z,28.85
2022-12-01T02:17:28.693Z,30.13
2022-12-01T02:20:03.378Z,29.38
2022-12-01T02:22:37.289Z,29.92
2022-12-01T02:25:12.115Z,29.75
2022-12-01T02:27:50.784Z,30.35
2022-12-01T02:30:18.194Z,31.38
2022-12-01T02:33:07.992Z,30.52
2022-12-01T02:35:41.168Z,31.20
2022-12-01T02:38:07.730Z,30.20
2022-12-01T02:40:39.572Z,32.20
2022-12-01T02:43:06.131Z,31.10
2022-12-01T02:45:37.144Z,29.95
2022-12-01T02:48:05.497Z,30.58
2022-12-01T02:50:33.922Z,30.17
2022-12-01T02:53:01.249Z,32.53
2022-12-01T02:55:27.653Z,31.45
2022-12-01T02:57:54.116Z,32.75
2022-12-01T03:00:20.700Z,31.85
2022-12-01T03:02:53.278Z,30.95
2022-12-01T03:05:34.473Z,32.17
2022-12-01T03:08:20.015Z,30.90
2022-12-01T03:10:54.632Z,30.67
2022-12-01T03:13:21.058Z,30.77
2022-12-01T03:15:53.560Z,30.77
2022-12-01T03:18:19.933Z,30.88
2022-12-01T03:20:48.598Z,30.38
2022-12-01T03:23:16.442Z,30.65
2022-12-01T03:25:44.630Z,31.92
2022-12-01T03:28:21.113Z,29.85
2022-12-01T03:30:50.158Z,29.15
2022-12-01T03:33:20.336Z,27.70
2022-12-01T03:35:59.756Z,28.55
2022-12-01T03:38:27.273Z,30.08
2022-12-01T03:41:02.147Z,29.98
2022-12-01T03:43:32.837Z,30.45
2022-12-01T03:46:02.957Z,29.13
2022-12-01T03:48:29.904Z,30.95
2022-12-01T03:51:02.529Z,32.15
2022-12-01T03:53:33.117Z,31.52
2022-12-01T03:56:02.380Z,31.23
2022-12-01T03:58:34.209Z,31.45
2022-12-01T04:01:04.177Z,30.85
2022-12-01T04:03:33.438Z,31.33
2022-12-01T04:05:59.949Z,31.50
2022-12-01T04:08:26.494Z,30.02
2022-12-01T04:10:52.877Z,31.98
2022-12-01T04:13:23.260Z,30.83
2022-12-01T04:15:53.627Z,30.90
2022-12-01T04:18:20.606Z,30.40
2022-12-01T04:20:47.672Z,29.75
2022-12-01T04:23:34.078Z,31.52
2022-12-01T04:26:01.641Z,32.33
2022-12-01T04:28:28.140Z,32.33
2022-12-01T04:30:54.559Z,32.00
2022-12-01T04:33:21.326Z,31.00
2022-12-01T04:35:56.221Z,32.58
2022-12-01T04:38:27.394Z,32.67
2022-12-01T04:40:56.572Z,33.03
2022-12-01T04:43:22.980Z,32.28
2022-12-01T04:45:49.360Z,30.90
2022-12-01T04:48:15.769Z,31.10
2022-12-01T04:50:42.178Z,32.20
2022-12-01T04:53:08.570Z,32.92
2022-12-01T04:55:41.368Z,32.10
2022-12-01T04:58:08.021Z,32.13
2022-12-01T05:00:34.430Z,32.50
2022-12-01T05:03:00.877Z,32.60
2022-12-01T05:05:27.644Z,31.70
2022-12-01T05:07:54.217Z,31.42
2022-12-01T05:10:20.738Z,32.72
2022-12-01T05:12:47.286Z,31.90
2022-12-01T05:15:13.722Z,32.05
2022-12-01T05:17:40.176Z,32.10
2022-12-01T05:20:25.810Z,31.48
2022-12-01T05:23:05.353Z,32.70
2022-12-01T05:25:32.624Z,31.67
2022-12-01T05:27:59.186Z,31.35
2022-12-01T05:30:28.532Z,32.38
2022-12-01T05:32:55.489Z,32.75
2022-12-01T05:35:21.952Z,32.03
2022-12-01T05:37:48.372Z,30.35
2022-12-01T05:40:14.806Z,31.48
2022-12-01T05:42:41.206Z,29.83
2022-12-01T05:45:07.870Z,30.75
2022-12-01T05:47:34.319Z,30.50
2022-12-01T05:50:05.143Z,31.38
2022-12-01T05:52:33.273Z,29.80
2022-12-01T05:54:59.680Z,30.13
2022-12-01T05:57:26.127Z,30.63
2022-12-01T05:59:52.532Z,30.08
2022-12-01T06:02:18.984Z,29.02
2022-12-01T06:04:45.528Z,29.90
2022-12-01T06:07:11.947Z,28.60
2022-12-01T06:09:38.511Z,29.27
2022-12-01T06:12:05.006Z,28.40
2022-12-01T06:14:31.654Z,29.50
2022-12-01T06:16:58.056Z,29.77
2022-12-01T06:19:24.637Z,30.40
2022-12-01T06:21:50.983Z,30.13
2022-12-01T06:24:17.407Z,29.58
2022-12-01T06:26:43.803Z,29.15
2022-12-01T06:29:10.799Z,29.52
2022-12-01T06:31:37.230Z,30.02
2022-12-01T06:34:03.675Z,30.27
2022-12-01T06:36:30.172Z,31.63
2022-12-01T06:38:56.619Z,32.40
2022-12-01T06:41:23.024Z,30.58
2022-12-01T06:43:49.454Z,32.13
2022-12-01T06:46:15.947Z,30.98
2022-12-01T06:48:42.440Z,30.52
2022-12-01T06:51:10.931Z,31.90
2022-12-01T06:53:37.521Z,33.58
2022-12-01T06:56:04.890Z,33.13
2022-12-01T06:58:31.968Z,32.90
2022-12-01T07:00:59.276Z,31.33
2022-12-01T07:03:25.999Z,33.90
2022-12-01T07:05:59.456Z,33.67
2022-12-01T07:08:26.549Z,33.80
2022-12-01T07:10:59.740Z,33.78
2022-12-01T07:13:31.527Z,32.47
2022-12-01T07:18:26.157Z,31.17
2022-12-01T07:20:52.570Z,33.67
2022-12-01T07:23:19.032Z,34.25
2022-12-01T07:25:45.570Z,32.90
2022-12-01T07:28:12.177Z,34.53
2022-12-01T07:30:39.066Z,33.97
2022-12-01T07:33:05.504Z,33.60
2022-12-01T07:35:31.921Z,34.53
2022-12-01T07:37:58.372Z,33.28
2022-12-01T07:40:24.865Z,34.17
2022-12-01T07:42:51.271Z,33.38
2022-12-01T07:45:17.713Z,34.30
2022-12-01T07:47:44.645Z,34.30
2022-12-01T07:50:11.266Z,33.50
2022-12-01T07:52:37.670Z,34.03
2022-12-01T07:55:04.225Z,34.13
2022-12-01T07:57:30.637Z,35.70
2022-12-01T07:59:57.139Z,34.30
2022-12-01T08:02:23.644Z,34.28
2022-12-01T08:04:50.171Z,35.88
2022-12-01T08:07:18.728Z,35.05
2022-12-01T08:09:45.786Z,35.38
2022-12-01T08:12:12.273Z,35.03
2022-12-01T08:14:38.663Z,33.85
2022-12-01T08:17:05.099Z,34.03
2022-12-01T08:19:31.540Z,35.47
2022-12-01T08:21:57.969Z,35.78
2022-12-01T08:24:24.665Z,32.75
2022-12-01T08:26:51.073Z,33.80
2022-12-01T08:29:20.436Z,34.50
2022-12-01T08:31:47.187Z,33.90
2022-12-01T08:34:13.672Z,35.45
2022-12-01T08:36:40.143Z,33.63
2022-12-01T08:39:07.720Z,35.80
2022-12-01T08:41:34.402Z,34.35
2022-12-01T08:44:01.433Z,36.08
2022-12-01T08:46:29.202Z,34.97
2022-12-01T08:48:57.310Z,34.25
2022-12-01T08:51:24.286Z,35.45
2022-12-01T08:53:50.677Z,34.00
2022-12-01T08:56:19.210Z,33.25
2022-12-01T08:58:45.933Z,34.17
2022-12-01T09:01:13.739Z,33.60
2022-12-01T09:03:40.565Z,33.28
2022-12-01T09:06:08.376Z,34.33
2022-12-01T09:08:35.867Z,34.28
2022-12-01T09:11:04.188Z,33.33
2022-12-01T09:13:31.272Z,35.55
2022-12-01T09:16:02.370Z,35.55
2022-12-01T09:18:28.837Z,34.03
2022-12-01T09:20:55.746Z,34.95
2022-12-01T09:23:22.425Z,32.67
2022-12-01T09:25:49.661Z,34.10
2022-12-01T09:28:16.163Z,33.10
2022-12-01T09:30:42.590Z,33.05
2022-12-01T09:33:08.992Z,32.42
2022-12-01T09:35:35.427Z,34.38
2022-12-01T09:38:01.842Z,32.70
2022-12-01T09:40:31.478Z,32.13
2022-12-01T09:43:00.306Z,33.35
2022-12-01T09:45:34.005Z,32.78
2022-12-01T09:50:28.473Z,30.75
2022-12-01T09:52:57.703Z,31.42
2022-12-01T09:55:24.932Z,30.70
2022-12-01T09:57:56.847Z,32.72
2022-12-01T10:00:24.841Z,33.13
2022-12-01T10:02:54.215Z,33.47
2022-12-01T10:05:22.071Z,32.97
2022-12-01T10:07:50.587Z,34.08
2022-12-01T10:10:24.713Z,32.45
2022-12-01T10:12:51.121Z,32.75
2022-12-01T10:15:20.574Z,33.03
2022-12-01T10:17:49.936Z,32.97
2022-12-01T10:20:24.933Z,32.30
2022-12-01T10:23:06.784Z,32.70
2022-12-01T10:25:51.515Z,32.60
2022-12-01T10:28:17.964Z,30.65
2022-12-01T10:30:49.259Z,32.15
2022-12-01T10:33:21.894Z,33.65
2022-12-01T10:35:48.284Z,31.77
2022-12-01T10:38:21.221Z,34.22
2022-12-01T10:40:50.767Z,32.40
2022-12-01T10:43:17.165Z,32.20
2022-12-01T10:45:44.631Z,34.17
2022-12-01T10:48:11.188Z,32.08
2022-12-01T10:50:37.743Z,31.75
2022-12-01T10:53:04.518Z,32.72
2022-12-01T10:55:34.702Z,32.38
2022-12-01T10:58:09.080Z,31.63
2022-12-01T11:03:25.998Z,30.13
2022-12-01T11:05:54.688Z,32.10
2022-12-01T11:08:56.577Z,31.63
2022-12-01T11:11:34.232Z,31.13
2022-12-01T11:14:02.743Z,32.20
2022-12-01T11:16:55.287Z,33.15
2022-12-01T11:19:26.921Z,32.03
2022-12-01T11:21:55.474Z,30.67
2022-12-01T11:24:24.852Z,31.38
2022-12-01T11:26:51.332Z,32.30
2022-12-01T11:29:37.433Z,31.80
2022-12-01T11:32:14.093Z,30.48
2022-12-01T11:34:40.728Z,30.23
2022-12-01T11:37:08.719Z,31.23
2022-12-01T11:39:37.160Z,31.52
2022-12-01T11:42:22.535Z,31.40
2022-12-01T11:44:55.039Z,32.10
2022-12-01T11:47:26.087Z,30.27
2022-12-01T11:49:54.584Z,32.05
2022-12-01T11:52:29.995Z,29.63
2022-12-01T11:54:58.550Z,29.73
2022-12-01T11:57:34.305Z,29.30
2022-12-01T12:00:01.437Z,29.42
2022-12-01T12:02:27.959Z,29.30
2022-12-01T12:05:09.704Z,30.50
2022-12-01T12:07:49.759Z,31.05
2022-12-01T12:10:28.527Z,29.52
2022-12-01T12:13:05.389Z,31.67
2022-12-01T12:15:31.777Z,29.80
2022-12-01T12:18:16.788Z,30.63
2022-12-01T12:20:49.118Z,28.80
2022-12-01T12:23:37.708Z,29.35
2022-12-01T12:26:09.899Z,30.13
2022-12-01T12:28:36.520Z,30.17
2022-12-01T12:31:05.760Z,31.55
2022-12-01T12:33:38.442Z,30.73
2022-12-01T12:36:11.118Z,29.00
2022-12-01T12:38:46.901Z,28.87
2022-12-01T12:41:19.465Z,29.77
2022-12-01T12:43:50.200Z,28.65
2022-12-01T12:46:29.912Z,29.50
2022-12-01T12:49:18.750Z,29.00
2022-12-01T12:51:45.866Z,27.30
2022-12-01T12:54:12.390Z,28.02
2022-12-01T12:56:40.614Z,29.33
2022-12-01T12:59:13.838Z,27.83
2022-12-01T13:01:42.913Z,26.52
2022-12-01T13:04:12.470Z,26.83
2022-12-01T13:06:41.954Z,28.98
2022-12-01T13:09:11.344Z,27.90
2022-12-01T13:11:53.994Z,28.02
2022-12-01T13:14:24.702Z,26.58
2022-12-01T13:16:53.647Z,26.48
2022-12-01T13:19:30.869Z,28.67
2022-12-01T13:21:58.312Z,28.95
2022-12-01T13:24:27.582Z,29.00
2022-12-01T13:27:01.867Z,26.70
2022-12-01T13:29:29.465Z,27.42
2022-12-01T13:31:56.066Z,26.92
2022-12-01T13:34:29.930Z,29.05
2022-12-01T13:36:56.658Z,27.80
2022-12-01T13:39:35.528Z,28.02
2022-12-01T13:42:09.145Z,27.63
2022-12-01T13:47:24.935Z,26.25
2022-12-01T13:49:52.371Z,27.20
2022-12-01T13:52:22.096Z,27.38
2022-12-01T13:55:13.410Z,27.83
2022-12-01T13:57:44.975Z,27.17
2022-12-01T14:00:21.449Z,27.55
2022-12-01T14:03:07.921Z,29.52
2022-12-01T14:05:40.406Z,26.02
2022-12-01T14:08:21.402Z,30.13
2022-12-01T14:11:00.530Z,25.38
2022-12-01T14:13:28.013Z,27.92
2022-12-01T14:15:56.447Z,25.15
2022-12-01T14:18:36.699Z,26.05
2022-12-01T14:21:05.526Z,25.88
2022-12-01T14:23:57.228Z,25.52
2022-12-01T14:26:24.491Z,25.88
2022-12-01T14:29:03.119Z,24.70
2022-12-01T14:31:52.573Z,23.58
2022-12-01T14:34:24.236Z,25.05
2022-12-01T14:36:57.006Z,24.45
2022-12-01T14:39:28.656Z,23.48
2022-12-01T14:42:13.298Z,24.30
2022-12-01T14:44:44.645Z,23.30
2022-12-01T14:47:11.098Z,23.45
2022-12-01T14:49:46.713Z,22.60
2022-12-01T14:52:28.487Z,23.67
2022-12-01T14:55:04.121Z,25.95
2022-12-01T14:57:36.851Z,25.92
2022-12-01T15:00:03.386Z,24.53
2022-12-01T15:02:29.947Z,27.33
2022-12-01T15:05:14.420Z,26.85
2022-12-01T15:07:42.442Z,25.27
2022-12-01T15:10:19.859Z,27.38
2022-12-01T15:12:46.483Z,25.75
2022-12-01T15:15:21.065Z,27.35
2022-12-01T15:17:50.896Z,29.05
2022-12-01T15:20:47.869Z,28.67
2022-12-01T15:23:15.556Z,29.33
2022-12-01T15:25:43.307Z,30.83
2022-12-01T15:28:09.681Z,31.98
2022-12-01T15:30:36.187Z,31.02
2022-12-01T15:33:02.798Z,32.47
2022-12-01T15:35:29.294Z,31.95
2022-12-01T15:37:55.972Z,32.47
2022-12-01T15:43:16.115Z,32.40
2022-12-01T15:45:46.079Z,30.65
2022-12-01T15:48:16.747Z,32.28
2022-12-01T15:50:46.552Z,31.83
2022-12-01T15:53:25.841Z,30.05
2022-12-01T15:55:58.599Z,31.67
2022-12-01T15:58:26.957Z,31.20
2022-12-01T16:00:59.552Z,30.90
2022-12-01T16:03:26.264Z,30.88
2022-12-01T16:05:52.980Z,32.28
2022-12-01T16:08:20.997Z,30.67
2022-12-01T16:11:07.351Z,30.05
2022-12-01T16:14:00.299Z,28.55
2022-12-01T16:16:37.436Z,30.80
2022-12-01T16:19:09.791Z,28.88
2022-12-01T16:21:50.390Z,28.92
2022-12-01T16:24:18.271Z,28.30
2022-12-01T16:26:48.852Z,29.08
2022-12-01T16:29:20.041Z,30.40
2022-12-01T16:32:12.633Z,29.73
2022-12-01T16:34:45.846Z,27.60
2022-12-01T16:37:14.512Z,28.15
2022-12-01T16:39:40.947Z,29.20
2022-12-01T16:42:10.689Z,28.83
2022-12-01T16:44:37.160Z,28.83
2022-12-01T16:47:03.584Z,27.90
2022-12-01T16:49:30.414Z,28.75
2022-12-01T16:51:57.524Z,30.70
2022-12-01T16:54:25.667Z,30.30
2022-12-01T16:56:52.129Z,30.55
2022-12-01T16:59:21.678Z,31.23
2022-12-01T17:01:48.189Z,31.48
2022-12-01T17:04:15.097Z,31.60
2022-12-01T17:06:41.722Z,33.15
2022-12-01T17:09:08.154Z,33.47
2022-12-01T17:11:34.693Z,31.38
2022-12-01T17:14:01.293Z,33.50
2022-12-01T17:16:27.733Z,33.22
2022-12-01T17:18:54.145Z,35.20
2022-12-01T17:21:20.611Z,35.00
2022-12-01T17:23:47.069Z,36.03
2022-12-01T17:26:14.970Z,35.67
2022-12-01T17:28:41.915Z,36.05
2022-12-01T17:31:09.042Z,34.65
2022-12-01T17:33:36.078Z,35.95
2022-12-01T17:36:04.490Z,35.20
2022-12-01T17:38:31.124Z,35.25
2022-12-01T17:41:09.542Z,35.42
2022-12-01T17:43:36.861Z,34.53
2022-12-01T17:46:04.376Z,35.53
2022-12-01T17:48:34.651Z,36.13
2022-12-01T17:51:01.096Z,35.25
2022-12-01T17:53:27.703Z,34.88
2022-12-01T17:55:54.180Z,37.53
2022-12-01T17:58:21.653Z,36.42
2022-12-01T18:00:50.007Z,35.15
2022-12-01T18:03:16.482Z,36.63
2022-12-01T18:05:43.093Z,36.05
2022-12-01T18:08:11.840Z,37.22
2022-12-01T18:10:38.351Z,36.15
2022-12-01T18:13:04.768Z,36.35
2022-12-01T18:15:34.688Z,37.38
2022-12-01T18:18:01.349Z,37.22
2022-12-01T18:20:27.837Z,37.03
2022-12-01T18:22:54.241Z,37.53
2022-12-01T18:25:20.682Z,39.53
2022-12-01T18:27:47.066Z,38.30
2022-12-01T18:30:13.863Z,37.88
2022-12-01T18:32:40.336Z,38.45
2022-12-01T18:35:06.898Z,37.40
2022-12-01T18:37:35.519Z,38.25
2022-12-01T18:40:01.906Z,40.63
2022-12-01T18:42:28.269Z,41.03
2022-12-01T18:44:54.669Z,38.63
2022-12-01T18:51:24.050Z,40.22
2022-12-01T18:53:54.726Z,39.97
2022-12-01T18:56:21.459Z,38.45
2022-12-01T18:58:48.096Z,38.83
2022-12-01T19:01:32.280Z,40.78
2022-12-01T19:03:59.418Z,41.75
2022-12-01T19:06:26.285Z,40.67
2022-12-01T19:08:53.448Z,41.22
2022-12-01T19:11:20.166Z,39.63
2022-12-01T19:13:46.791Z,40.45
2022-12-01T19:16:14.323Z,38.78
2022-12-01T19:18:40.854Z,39.85
2022-12-01T19:21:08.698Z,42.13
2022-12-01T19:23:35.095Z,42.40
2022-12-01T19:26:06.028Z,39.50
2022-12-01T19:28:36.107Z,39.70
2022-12-01T19:31:06.821Z,37.10
2022-12-01T19:33:33.879Z,39.10
2022-12-01T19:36:11.305Z,38.78
2022-12-01T19:38:38.358Z,38.35
2022-12-01T19:41:05.755Z,39.72
2022-12-01T19:43:36.254Z,41.13
2022-12-01T19:46:10.668Z,41.03
2022-12-01T19:48:37.452Z,39.42
2022-12-01T19:51:04.315Z,40.13
2022-12-01T19:53:34.374Z,41.00
2022-12-01T19:56:07.241Z,40.65
2022-12-01T19:58:34.092Z,43.28
2022-12-01T20:01:09.074Z,38.88
2022-12-01T20:03:38.366Z,39.90
2022-12-01T20:06:06.326Z,40.05
2022-12-01T20:08:35.884Z,39.28
2022-12-01T20:11:04.602Z,41.55
2022-12-01T20:13:32.708Z,40.47
2022-12-01T20:16:04.271Z,41.55
2022-12-01T20:18:36.565Z,40.20
2022-12-01T20:21:17.607Z,40.63
2022-12-01T20:23:45.369Z,42.15
2022-12-01T20:26:12.578Z,40.97
2022-12-01T20:28:40.372Z,40.35
2022-12-01T20:31:18.399Z,41.53
2022-12-01T20:33:48.155Z,40.50
2022-12-01T20:36:24.231Z,40.03
2022-12-01T20:38:53.412Z,40.60
2022-12-01T20:41:20.559Z,39.42
2022-12-01T20:43:50.170Z,39.95
2022-12-01T20:46:17.150Z,42.67
2022-12-01T20:48:44.394Z,43.17
2022-12-01T20:51:12.182Z,38.85
2022-12-01T20:53:39.034Z,39.97
2022-12-01T20:56:06.899Z,40.50
2022-12-01T20:58:37.703Z,43.08
2022-12-01T21:01:09.219Z,40.58
2022-12-01T21:03:39.640Z,42.10
2022-12-01T21:06:06.758Z,41.65
2022-12-01T21:08:33.426Z,41.78
2022-12-01T21:11:06.735Z,41.63
2022-12-01T21:13:39.535Z,43.50
2022-12-01T21:16:13.653Z,43.47
2022-12-01T21:19:15.851Z,42.72
2022-12-01T21:21:42.462Z,42.28
2022-12-01T21:24:12.123Z,41.63
2022-12-01T21:26:42.569Z,44.28
2022-12-01T21:29:37.492Z,41.28
2022-12-01T21:32:10.344Z,42.78
2022-12-01T21:34:39.739Z,40.45
2022-12-01T21:37:10.527Z,41.90
2022-12-01T21:39:39.506Z,42.88
2022-12-01T21:42:29.110Z,41.67
2022-12-01T21:44:56.149Z,44.30
2022-12-01T21:47:26.830Z,42.10
2022-12-01T21:49:57.017Z,43.05
2022-12-01T21:52:33.275Z,43.58
2022-12-01T21:55:15.144Z,44.20
2022-12-01T21:57:51.684Z,43.08
2022-12-01T22:00:20.962Z,43.90
2022-12-01T22:02:52.233Z,42.13
2022-12-01T22:05:25.925Z,43.97
2022-12-01T22:10:37.626Z,41.15
2022-12-01T22:13:08.281Z,44.15
2022-12-01T22:15:42.335Z,44.08
2022-12-01T22:18:17.688Z,43.42
2022-12-01T22:20:44.094Z,42.83
2022-12-01T22:23:12.268Z,42.78
2022-12-01T22:25:40.107Z,42.58
2022-12-01T22:28:17.409Z,45.05
2022-12-01T22:30:44.492Z,43.08
2022-12-01T22:33:14.848Z,45.13
2022-12-01T22:35:45.787Z,43.55
2022-12-01T22:38:30.734Z,41.95
2022-12-01T22:40:58.240Z,42.15
2022-12-01T22:43:26.143Z,41.72
2022-12-01T22:45:52.500Z,42.50
2022-12-01T22:48:28.140Z,41.75
2022-12-01T22:50:54.750Z,42.70
2022-12-01T22:53:30.910Z,46.10
2022-12-01T22:55:59.980Z,42.25
2022-12-01T22:58:39.579Z,41.67
2022-12-01T23:01:18.025Z,42.05
2022-12-01T23:03:44.520Z,43.70
2022-12-01T23:06:30.901Z,42.05
2022-12-01T23:08:57.329Z,41.65
2022-12-01T23:11:23.698Z,40.40
2022-12-01T23:13:50.112Z,42.58
2022-12-01T23:16:16.567Z,41.00
2022-12-01T23:18:45.288Z,40.10
2022-12-01T23:21:11.692Z,40.72
2022-12-01T23:23:38.177Z,40.08
2022-12-01T23:26:06.697Z,41.95
2022-12-01T23:28:34.789Z,40.20
2022-12-01T23:31:01.319Z,41.25
2022-12-01T23:33:32.174Z,39.85
2022-12-01T23:35:58.555Z,39.45
2022-12-01T23:38:28.924Z,41.30
2022-12-01T23:40:57.045Z,40.35
2022-12-01T23:43:25.293Z,41.72
2022-12-01T23:45:58.635Z,40.63
2022-12-01T23:48:27.085Z,42.25
2022-12-01T23:50:54.393Z,40.83
2022-12-01T23:53:31.613Z,42.97
2022-12-01T23:56:07.333Z,39.88
2022-12-01T23:58:33.988Z,41.78
